Whispering Pines, NC

12:53 PM EST on February 07, 2016 (GMT -0500)
Moore County | | Change Station
CLOSE
Current Station
Airport
Location: Southern Pines,
Elevation: 463 ft
Nearby Weather Stations

Elev 463 ft 35.24 °N, 79.39 °W | Updated 18 minutes ago

Overcast
Overcast
41 °F
Feels Like 35 °F
N
9
Wind Variable Wind from NE
Gusts 16 mph

Today
High -- | Low -- °F
--% Chance of Precip.
Yesterday
High -- | Low -- °F
Precip. -- in
Pressure 30.00 in
Visibility 10.0 miles
Clouds Mostly Cloudy 5000 ft
Overcast 6500 ft
Windchill 35 °F
Dew Point 19 °F
Humidity 42%
Rainfall 0.00 in
Snow Depth Not available.
7:12 AM 5:51 PM
Waning Crescent, 1% visible
METAR KSOP 071735Z AUTO 05008G14KT 10SM BKN050 OVC065 05/M07 A3000 RMK AO1
Pressure 30.00 in
Visibility 10.0 miles
Clouds Mostly Cloudy 5000 ft
Overcast 6500 ft
Windchill 35 °F
Dew Point 19 °F
Humidity 42%
Rainfall 0.00 in
Snow Depth Not available.
7:12 AM 5:51 PM
Waning Crescent, 1% visible
METAR KSOP 071735Z AUTO 05008G14KT 10SM BKN050 OVC065 05/M07 A3000 RMK AO1

10-Day Weather Forecast

Almanac

Astronomy

Feb. 07, 2016 Rise Set
Actual Time
Civil Twilight
Nautical Twilight
Astronomical Twilight
Moon
Length of Visible Light
Length of Day
Tomorrow will be .
, % of the Moon is Illuminated

Today's Extremes

State Highs State Lows

Community

WunderPhotos

Upload Photos

1,891,248 photos uploaded!

WunderBlog® & News

Nearby

Air Quality

  Air Quality AQ Index Pollutant
Not available.

Snow Depth

Station Depth Elevation

Earthquake Activity

City Distance Mag. Time & Date
Minimum magnitude displayed is 2.5.

Coastal Water Temperatures

Place Temperature

Stations

Nearby Weather Stations

Station Location Temp. Windchill Dew Point Humidity Wind Precip. Elev Updated Type
                   

Watches & Warnings

There are currently no watches in effect.